createdAt,value
2023-01-30T00:02:01.081Z,33.83
2023-01-30T00:04:33.143Z,31.77
2023-01-30T00:07:05.501Z,32.87
2023-01-30T00:09:37.452Z,29.40
2023-01-30T00:12:09.494Z,28.77
2023-01-30T00:14:41.438Z,30.47
2023-01-30T00:17:13.356Z,31.20
2023-01-30T00:19:45.313Z,29.23
2023-01-30T00:22:17.441Z,30.43
2023-01-30T00:24:49.499Z,30.03
2023-01-30T00:27:21.483Z,29.47
2023-01-30T00:30:02.574Z,29.93
2023-01-30T00:32:35.037Z,27.97
2023-01-30T00:35:07.696Z,26.67
2023-01-30T00:37:41.027Z,27.07
2023-01-30T00:40:13.097Z,26.83
2023-01-30T00:43:03.591Z,26.77
2023-01-30T00:45:55.213Z,29.30
2023-01-30T00:48:27.805Z,26.97
2023-01-30T00:50:59.776Z,30.30
2023-01-30T00:53:31.711Z,31.50
2023-01-30T00:56:04.060Z,29.10
2023-01-30T00:58:35.983Z,29.53
2023-01-30T01:01:07.893Z,27.90
2023-01-30T01:03:39.879Z,28.70
2023-01-30T01:06:11.935Z,29.47
2023-01-30T01:08:43.943Z,28.77
2023-01-30T01:11:24.553Z,27.60
2023-01-30T01:14:00.989Z,28.53
2023-01-30T01:16:35.257Z,27.63
2023-01-30T01:19:07.310Z,27.90
2023-01-30T01:21:39.288Z,28.33
2023-01-30T01:24:15.352Z,29.63
2023-01-30T01:26:47.400Z,30.17
2023-01-30T01:29:19.960Z,30.47
2023-01-30T01:31:51.965Z,28.73
2023-01-30T01:34:23.912Z,27.17
2023-01-30T01:36:55.886Z,28.10
2023-01-30T01:39:50.406Z,28.50
2023-01-30T01:42:29.239Z,27.10
2023-01-30T01:45:22.668Z,27.10
2023-01-30T01:48:06.197Z,27.60
2023-01-30T01:50:48.833Z,26.80
2023-01-30T01:53:28.076Z,27.60
2023-01-30T01:56:03.077Z,28.00
2023-01-30T01:58:47.941Z,26.40
2023-01-30T02:01:20.154Z,25.63
2023-01-30T02:04:01.821Z,25.20
2023-01-30T02:06:33.918Z,25.90
2023-01-30T02:09:10.773Z,25.00
2023-01-30T02:11:56.139Z,27.97
2023-01-30T02:14:29.404Z,25.23
2023-01-30T02:17:01.484Z,27.83
2023-01-30T02:20:23.759Z,28.43
2023-01-30T02:23:35.679Z,29.03
2023-01-30T02:26:47.483Z,26.87
2023-01-30T02:29:50.229Z,28.77
2023-01-30T02:33:01.138Z,28.70
2023-01-30T02:35:33.022Z,25.97
2023-01-30T02:38:30.194Z,28.20
2023-01-30T02:41:30.918Z,26.83
2023-01-30T02:44:16.819Z,28.37
2023-01-30T02:47:06.933Z,29.37
2023-01-30T02:49:50.879Z,31.60
2023-01-30T02:52:24.407Z,27.83
2023-01-30T02:54:58.797Z,26.73
2023-01-30T02:57:30.712Z,31.10
2023-01-30T03:00:06.434Z,30.90
2023-01-30T03:03:07.061Z,30.67
2023-01-30T03:06:07.955Z,30.27
2023-01-30T03:10:02.743Z,28.93
2023-01-30T03:12:52.435Z,28.07
2023-01-30T03:15:40.072Z,28.33
2023-01-30T03:18:12.088Z,28.63
2023-01-30T03:20:44.710Z,30.70
2023-01-30T03:23:16.764Z,29.53
2023-01-30T03:25:52.432Z,29.73
2023-01-30T03:28:24.905Z,28.97
2023-01-30T03:30:56.999Z,32.40
2023-01-30T03:33:29.362Z,34.20
2023-01-30T03:36:01.732Z,32.53
2023-01-30T03:38:36.097Z,30.93
2023-01-30T03:41:08.405Z,31.50
2023-01-30T03:43:40.469Z,31.77
2023-01-30T03:46:12.436Z,34.07
2023-01-30T03:48:44.473Z,33.03
2023-01-30T03:51:16.428Z,32.43
2023-01-30T03:53:48.425Z,31.97
2023-01-30T03:56:20.497Z,32.83
2023-01-30T03:58:52.446Z,33.33
2023-01-30T04:01:24.435Z,35.50
2023-01-30T04:03:56.451Z,33.27
2023-01-30T04:06:28.403Z,30.67
2023-01-30T04:09:00.383Z,32.40
2023-01-30T04:11:32.382Z,29.70
2023-01-30T04:14:04.288Z,30.80
2023-01-30T04:16:36.605Z,32.37
2023-01-30T04:19:08.623Z,32.27
2023-01-30T04:21:40.576Z,33.33
2023-01-30T04:24:12.608Z,30.00
2023-01-30T04:26:44.772Z,30.13
2023-01-30T04:29:16.697Z,30.70
2023-01-30T04:31:48.681Z,29.43
2023-01-30T04:34:20.647Z,31.30
2023-01-30T04:36:52.637Z,29.93
2023-01-30T04:39:24.535Z,28.20
2023-01-30T04:41:56.545Z,29.77
2023-01-30T04:44:28.461Z,27.83
2023-01-30T04:47:00.468Z,27.53
2023-01-30T04:49:32.388Z,30.07
2023-01-30T04:52:05.009Z,29.00
2023-01-30T04:54:37.067Z,29.17
2023-01-30T04:57:09.050Z,27.40
2023-01-30T04:59:41.062Z,25.87
2023-01-30T05:02:13.008Z,26.87
2023-01-30T05:04:44.986Z,26.47
2023-01-30T05:07:16.973Z,23.70
2023-01-30T05:09:48.923Z,23.47
2023-01-30T05:12:20.885Z,23.27
2023-01-30T05:14:52.810Z,24.70
2023-01-30T05:17:24.811Z,20.67
2023-01-30T05:19:56.968Z,22.37
2023-01-30T05:22:28.995Z,19.03
2023-01-30T05:25:01.042Z,19.17
2023-01-30T05:27:33.095Z,18.57
2023-01-30T05:30:06.330Z,14.63
2023-01-30T05:32:38.279Z,16.20
2023-01-30T05:35:10.495Z,18.60
2023-01-30T05:37:42.473Z,16.67
2023-01-30T05:40:14.639Z,13.53
2023-01-30T05:42:46.558Z,13.93
2023-01-30T05:45:18.808Z,13.13
2023-01-30T05:47:53.629Z,13.03
2023-01-30T05:50:26.849Z,13.73
2023-01-30T05:52:58.813Z,16.80
2023-01-30T05:55:30.736Z,15.97
2023-01-30T05:58:02.659Z,12.33
2023-01-30T06:00:34.591Z,14.03
2023-01-30T06:03:06.586Z,15.00
2023-01-30T06:05:38.947Z,13.73
2023-01-30T06:08:10.945Z,10.63
2023-01-30T06:10:42.935Z,12.20
2023-01-30T06:13:14.884Z,14.73
2023-01-30T06:15:47.104Z,19.67
2023-01-30T06:18:19.046Z,12.93
2023-01-30T06:20:52.985Z,14.90
2023-01-30T06:23:24.957Z,12.00
2023-01-30T06:25:57.157Z,9.53
2023-01-30T06:28:29.206Z,10.53
2023-01-30T06:31:02.053Z,10.97
2023-01-30T06:33:34.142Z,14.63
2023-01-30T06:36:06.620Z,9.60
2023-01-30T06:38:38.563Z,13.67
2023-01-30T06:41:10.612Z,11.27
2023-01-30T06:43:42.829Z,12.17
2023-01-30T06:46:14.922Z,11.90
2023-01-30T06:48:46.952Z,11.67
2023-01-30T06:51:18.951Z,9.40
2023-01-30T06:53:53.270Z,10.70
2023-01-30T06:56:25.287Z,10.83
2023-01-30T06:58:57.262Z,11.07
2023-01-30T07:01:29.260Z,10.07
2023-01-30T07:04:01.241Z,12.93
2023-01-30T07:06:33.276Z,10.10
2023-01-30T07:09:05.330Z,13.03
2023-01-30T07:11:37.268Z,12.57
2023-01-30T07:14:09.996Z,11.67
2023-01-30T07:16:41.988Z,10.27
2023-01-30T07:19:14.026Z,13.17
2023-01-30T07:21:45.981Z,10.57
2023-01-30T07:24:18.012Z,12.07
2023-01-30T07:26:50.043Z,11.10
2023-01-30T07:29:22.051Z,9.37
2023-01-30T07:31:54.101Z,10.77
2023-01-30T07:34:26.106Z,12.13
2023-01-30T07:36:58.060Z,11.23
2023-01-30T07:39:30.124Z,10.77
2023-01-30T07:42:03.146Z,14.13
2023-01-30T07:44:35.182Z,10.97
2023-01-30T07:47:07.187Z,8.83
2023-01-30T07:49:39.174Z,9.97
2023-01-30T07:52:11.141Z,12.43
2023-01-30T07:54:43.112Z,11.87
2023-01-30T07:57:15.048Z,10.53
2023-01-30T07:59:47.002Z,12.90
2023-01-30T08:02:18.897Z,13.37
2023-01-30T08:04:50.852Z,13.47
2023-01-30T08:07:22.840Z,8.23
2023-01-30T08:09:54.716Z,14.00
2023-01-30T08:12:26.733Z,9.80
2023-01-30T08:14:58.715Z,14.40
2023-01-30T08:17:30.707Z,11.37
2023-01-30T08:20:04.160Z,10.33
2023-01-30T08:22:36.041Z,13.20
2023-01-30T08:25:08.435Z,12.73
2023-01-30T08:27:40.395Z,12.30
2023-01-30T08:30:13.737Z,12.43
2023-01-30T08:32:46.021Z,11.23
2023-01-30T08:35:18.244Z,12.07
2023-01-30T08:37:50.378Z,12.47
2023-01-30T08:40:22.317Z,14.23
2023-01-30T08:42:54.347Z,15.90
2023-01-30T08:45:26.443Z,11.77
2023-01-30T08:48:00.393Z,11.50
2023-01-30T08:50:33.869Z,13.60
2023-01-30T08:53:09.189Z,13.40
2023-01-30T08:55:41.185Z,14.03
2023-01-30T08:58:13.107Z,13.83
2023-01-30T09:00:47.816Z,14.00
2023-01-30T09:03:20.728Z,14.93
2023-01-30T09:05:56.513Z,13.23
2023-01-30T09:08:28.830Z,13.63
2023-01-30T09:11:04.797Z,11.67
2023-01-30T09:13:36.841Z,12.60
2023-01-30T09:16:10.310Z,13.77
2023-01-30T09:18:44.466Z,12.07
2023-01-30T09:21:16.640Z,13.33
2023-01-30T09:23:48.605Z,15.63
2023-01-30T09:26:20.636Z,13.53
2023-01-30T09:28:52.657Z,12.23
2023-01-30T09:31:24.829Z,11.33
2023-01-30T09:33:56.958Z,12.23
2023-01-30T09:36:29.014Z,12.37
2023-01-30T09:39:00.973Z,10.90
2023-01-30T09:42:15.384Z,16.27
2023-01-30T09:45:29.040Z,11.10
2023-01-30T09:48:39.648Z,10.83
2023-01-30T09:51:58.976Z,9.10
2023-01-30T09:54:37.849Z,7.90
2023-01-30T09:57:24.678Z,14.80
2023-01-30T10:00:11.014Z,15.27
2023-01-30T10:03:06.963Z,10.17
2023-01-30T10:05:56.915Z,13.53
2023-01-30T10:08:39.891Z,12.67
2023-01-30T10:11:50.891Z,14.97
2023-01-30T10:14:53.167Z,14.97
2023-01-30T10:18:07.948Z,12.47
2023-01-30T10:20:52.406Z,14.20
2023-01-30T10:23:27.076Z,13.10
2023-01-30T10:26:12.704Z,11.83
2023-01-30T10:29:07.344Z,12.73
2023-01-30T10:31:50.572Z,11.90
2023-01-30T10:34:38.609Z,12.77
2023-01-30T10:37:36.138Z,11.33
2023-01-30T10:40:42.442Z,9.57
2023-01-30T10:43:38.212Z,10.97
2023-01-30T10:46:40.964Z,10.43
2023-01-30T10:49:37.591Z,7.80
2023-01-30T10:53:04.516Z,10.67
2023-01-30T10:55:48.474Z,14.97
2023-01-30T10:58:58.228Z,9.90
2023-01-30T11:02:16.912Z,9.33
2023-01-30T11:05:02.448Z,15.13
2023-01-30T11:07:34.549Z,11.40
2023-01-30T11:10:22.616Z,10.70
2023-01-30T11:13:07.251Z,12.67
2023-01-30T11:15:45.587Z,13.50
2023-01-30T11:21:42.357Z,13.13
2023-01-30T11:24:30.925Z,9.80
2023-01-30T11:27:33.649Z,14.27
2023-01-30T11:30:19.506Z,11.80
2023-01-30T11:32:51.978Z,10.77
2023-01-30T11:35:29.915Z,8.87
2023-01-30T11:38:21.402Z,9.77
2023-01-30T11:41:22.419Z,14.57
2023-01-30T11:44:04.111Z,11.20
2023-01-30T11:46:40.370Z,12.57
2023-01-30T11:49:47.715Z,11.03
2023-01-30T11:52:20.205Z,13.03
2023-01-30T11:55:00.134Z,12.90
2023-01-30T11:57:47.261Z,14.10
2023-01-30T12:00:23.307Z,8.60
2023-01-30T12:03:02.292Z,11.77
2023-01-30T12:05:45.246Z,16.03
2023-01-30T12:08:24.753Z,13.00
2023-01-30T12:11:02.456Z,10.30
2023-01-30T12:13:45.485Z,11.20
2023-01-30T12:16:42.407Z,10.20
2023-01-30T12:19:38.667Z,10.00
2023-01-30T12:22:24.660Z,13.83
2023-01-30T12:25:03.767Z,11.97
2023-01-30T12:28:14.546Z,9.67
2023-01-30T12:31:06.116Z,12.10
2023-01-30T12:33:38.307Z,11.53
2023-01-30T12:36:33.521Z,13.57
2023-01-30T12:39:22.459Z,12.70
2023-01-30T12:42:33.197Z,13.73
2023-01-30T12:45:28.044Z,11.67
2023-01-30T12:47:59.913Z,15.73
2023-01-30T12:51:18.919Z,11.07
2023-01-30T12:54:28.933Z,11.73
2023-01-30T12:57:55.539Z,15.60
2023-01-30T13:00:55.599Z,13.77
2023-01-30T13:03:55.393Z,14.97
2023-01-30T13:07:05.405Z,12.83
2023-01-30T13:09:46.788Z,11.53
2023-01-30T13:13:03.196Z,13.87
2023-01-30T13:15:44.480Z,11.83
2023-01-30T13:18:29.730Z,12.63
2023-01-30T13:21:31.359Z,10.30
2023-01-30T13:24:27.647Z,10.97
2023-01-30T13:27:03.749Z,10.97
2023-01-30T13:29:41.350Z,12.60
2023-01-30T13:32:43.425Z,13.77
2023-01-30T13:35:25.233Z,9.10
2023-01-30T13:37:58.970Z,13.67
2023-01-30T13:40:40.877Z,14.23
2023-01-30T13:43:36.862Z,16.40
2023-01-30T13:46:17.070Z,14.40
2023-01-30T13:49:08.655Z,15.53
2023-01-30T13:52:06.828Z,12.40
2023-01-30T13:55:00.496Z,11.87
2023-01-30T13:57:49.398Z,13.67
2023-01-30T14:00:29.553Z,12.87
2023-01-30T14:03:07.291Z,12.50
2023-01-30T14:05:54.419Z,15.07
2023-01-30T14:08:33.250Z,11.93
2023-01-30T14:11:29.084Z,11.80
2023-01-30T14:14:23.397Z,12.37
2023-01-30T14:17:16.702Z,14.43
2023-01-30T14:20:02.130Z,9.63
2023-01-30T14:22:56.224Z,14.47
2023-01-30T14:25:35.328Z,13.10
2023-01-30T14:28:07.591Z,12.97
2023-01-30T14:30:45.613Z,12.00
2023-01-30T14:33:23.256Z,9.37
2023-01-30T14:36:01.076Z,12.37
2023-01-30T14:38:36.501Z,15.00
2023-01-30T14:41:14.337Z,15.90
2023-01-30T14:43:48.507Z,12.37
2023-01-30T14:46:21.676Z,19.83
2023-01-30T14:49:16.123Z,13.40
2023-01-30T14:51:49.692Z,12.97
2023-01-30T14:54:41.203Z,14.67
2023-01-30T14:57:32.712Z,14.63
2023-01-30T15:00:20.984Z,11.53
2023-01-30T15:03:09.724Z,16.43
2023-01-30T15:05:48.094Z,14.90
2023-01-30T15:08:26.568Z,15.17
2023-01-30T15:11:23.965Z,10.10
2023-01-30T15:14:11.959Z,11.57
2023-01-30T15:17:06.729Z,12.47
2023-01-30T15:20:20.228Z,12.50
2023-01-30T15:23:12.963Z,10.57
2023-01-30T15:26:25.045Z,14.33
2023-01-30T15:29:02.682Z,12.37
2023-01-30T15:31:34.911Z,11.43
2023-01-30T15:34:20.521Z,8.87
2023-01-30T15:36:52.535Z,12.67
2023-01-30T15:39:27.858Z,15.53
2023-01-30T15:42:08.127Z,13.57
2023-01-30T15:45:02.933Z,13.90
2023-01-30T15:47:57.815Z,11.30
2023-01-30T15:50:29.860Z,13.53
2023-01-30T15:53:02.354Z,12.40
2023-01-30T15:55:37.294Z,14.17
2023-01-30T15:58:20.537Z,16.80
2023-01-30T16:01:00.091Z,12.67
2023-01-30T16:03:40.859Z,13.47
2023-01-30T16:06:32.744Z,15.27
2023-01-30T16:09:20.029Z,13.23
2023-01-30T16:11:52.396Z,10.73
2023-01-30T16:14:24.719Z,14.17
2023-01-30T16:17:05.340Z,11.10
2023-01-30T16:19:39.063Z,12.03
2023-01-30T16:22:19.846Z,11.70
2023-01-30T16:24:55.501Z,14.37
2023-01-30T16:27:35.346Z,12.87
2023-01-30T16:30:10.550Z,11.00
2023-01-30T16:32:43.024Z,17.15
2023-01-30T16:35:27.496Z,16.53
2023-01-30T16:38:03.212Z,14.40
2023-01-30T16:40:46.403Z,13.23
2023-01-30T16:43:24.035Z,12.30
2023-01-30T16:46:45.260Z,16.20
2023-01-30T16:49:41.846Z,13.10
2023-01-30T16:52:24.056Z,13.23
2023-01-30T16:55:03.332Z,14.73
2023-01-30T16:57:52.443Z,13.93
2023-01-30T17:00:37.675Z,14.47
2023-01-30T17:03:31.689Z,13.97
2023-01-30T17:06:13.172Z,12.37
2023-01-30T17:08:54.417Z,12.47
2023-01-30T17:11:41.698Z,13.23
2023-01-30T17:14:25.811Z,15.97
2023-01-30T17:17:04.429Z,12.27
2023-01-30T17:19:37.691Z,12.97
2023-01-30T17:22:24.479Z,15.33
2023-01-30T17:25:03.557Z,13.93
2023-01-30T17:27:35.461Z,17.97
2023-01-30T17:30:19.655Z,12.33
2023-01-30T17:32:51.919Z,13.07
2023-01-30T17:35:23.955Z,17.33
2023-01-30T17:38:05.253Z,13.67
2023-01-30T17:40:39.081Z,16.73
2023-01-30T17:43:13.063Z,15.77
2023-01-30T17:45:45.223Z,15.87
2023-01-30T17:48:17.139Z,12.47
2023-01-30T17:50:49.049Z,16.87
2023-01-30T17:53:20.987Z,14.87
2023-01-30T17:55:52.950Z,15.73
2023-01-30T17:58:24.997Z,17.17
2023-01-30T18:00:57.042Z,14.17
2023-01-30T18:03:28.996Z,13.73
2023-01-30T18:06:00.928Z,14.87
2023-01-30T18:08:32.901Z,14.03
2023-01-30T18:11:05.235Z,16.53
2023-01-30T18:13:39.475Z,17.87
2023-01-30T18:16:23.424Z,15.13
2023-01-30T18:18:59.326Z,12.40
2023-01-30T18:21:34.020Z,17.23
2023-01-30T18:24:07.428Z,13.50
2023-01-30T18:26:40.507Z,15.77
2023-01-30T18:29:13.066Z,17.20
2023-01-30T18:31:45.052Z,16.53
2023-01-30T18:34:17.082Z,13.80
2023-01-30T18:36:48.998Z,18.57
2023-01-30T18:39:21.022Z,20.30
2023-01-30T18:41:52.984Z,22.03
2023-01-30T18:44:24.938Z,13.30
2023-01-30T18:46:57.173Z,15.13
2023-01-30T18:49:31.844Z,19.70
2023-01-30T18:52:04.143Z,20.10
2023-01-30T18:54:37.522Z,18.50
2023-01-30T18:57:09.507Z,19.00
2023-01-30T18:59:41.577Z,18.87
2023-01-30T19:02:13.701Z,15.93
2023-01-30T19:04:45.697Z,18.50
2023-01-30T19:07:17.704Z,22.57
2023-01-30T19:09:49.722Z,15.93
2023-01-30T19:12:42.033Z,18.77
2023-01-30T19:15:14.394Z,18.47
2023-01-30T19:17:46.381Z,20.47
2023-01-30T19:20:19.701Z,23.77
2023-01-30T19:22:57.266Z,24.60
2023-01-30T19:25:29.430Z,18.97
2023-01-30T19:28:01.433Z,21.13
2023-01-30T19:30:33.426Z,20.17
2023-01-30T19:33:05.423Z,21.10
2023-01-30T19:35:37.422Z,17.57
2023-01-30T19:38:10.716Z,15.80
2023-01-30T19:40:45.319Z,17.43
2023-01-30T19:43:17.753Z,21.77
2023-01-30T19:45:58.941Z,19.73
2023-01-30T19:48:30.938Z,14.60
2023-01-30T19:51:20.407Z,17.77
2023-01-30T19:54:12.181Z,19.10
2023-01-30T19:56:48.325Z,21.67
2023-01-30T19:59:20.338Z,20.50
2023-01-30T20:01:52.428Z,14.80
2023-01-30T20:04:24.462Z,21.87
2023-01-30T20:06:59.441Z,17.63
2023-01-30T20:09:31.468Z,17.47
2023-01-30T20:12:03.740Z,15.77
2023-01-30T20:14:35.743Z,16.90
2023-01-30T20:17:07.726Z,17.23
2023-01-30T20:19:39.732Z,21.73
2023-01-30T20:22:11.731Z,18.17
2023-01-30T20:24:43.665Z,12.30
2023-01-30T20:27:16.179Z,18.00
2023-01-30T20:29:48.196Z,24.23
2023-01-30T20:32:20.541Z,18.27
2023-01-30T20:34:52.639Z,18.07
2023-01-30T20:37:25.894Z,16.53
2023-01-30T20:39:57.818Z,18.70
2023-01-30T20:42:29.820Z,16.67
2023-01-30T20:45:01.845Z,18.87
2023-01-30T20:47:35.016Z,15.63
2023-01-30T20:50:07.560Z,17.83
2023-01-30T20:52:42.276Z,18.10
2023-01-30T20:55:14.381Z,15.77
2023-01-30T20:57:46.386Z,16.87
2023-01-30T21:00:19.249Z,20.40
2023-01-30T21:02:52.274Z,19.73
2023-01-30T21:05:24.322Z,20.07
2023-01-30T21:07:59.010Z,18.80
2023-01-30T21:10:33.683Z,16.63
2023-01-30T21:13:05.734Z,16.53
2023-01-30T21:15:38.075Z,14.83
2023-01-30T21:18:10.121Z,17.77
2023-01-30T21:20:49.826Z,15.37
2023-01-30T21:23:22.201Z,16.63
2023-01-30T21:25:57.601Z,15.50
2023-01-30T21:28:30.295Z,13.97
2023-01-30T21:31:15.569Z,14.83
2023-01-30T21:33:48.673Z,13.97
2023-01-30T21:36:20.621Z,15.23
2023-01-30T21:39:11.936Z,13.60
2023-01-30T21:41:58.781Z,14.63
2023-01-30T21:44:37.851Z,11.83
2023-01-30T21:47:09.920Z,17.07
2023-01-30T21:49:43.988Z,15.87
2023-01-30T21:52:16.083Z,20.00
2023-01-30T21:54:48.021Z,15.57
2023-01-30T21:57:20.032Z,16.00
2023-01-30T21:59:52.084Z,15.27
2023-01-30T22:02:24.138Z,19.40
2023-01-30T22:04:59.113Z,18.80
2023-01-30T22:07:32.000Z,19.50
2023-01-30T22:10:04.188Z,20.43
2023-01-30T22:12:38.691Z,15.90
2023-01-30T22:15:10.915Z,17.87
2023-01-30T22:17:42.974Z,14.60
2023-01-30T22:20:15.516Z,13.70
2023-01-30T22:22:49.136Z,15.60
2023-01-30T22:25:21.389Z,14.67
2023-01-30T22:27:53.598Z,18.03
2023-01-30T22:30:25.494Z,13.47
2023-01-30T22:32:57.505Z,18.00
2023-01-30T22:35:29.446Z,15.03
2023-01-30T22:38:01.373Z,15.00
2023-01-30T22:40:33.318Z,17.60
2023-01-30T22:43:05.353Z,13.43
2023-01-30T22:45:37.483Z,19.47
2023-01-30T22:48:09.484Z,16.30
2023-01-30T22:50:41.557Z,14.63
2023-01-30T22:53:13.496Z,16.27
2023-01-30T22:55:45.445Z,16.27
2023-01-30T22:58:17.350Z,14.80
2023-01-30T23:00:49.254Z,15.50
2023-01-30T23:03:21.296Z,16.63
2023-01-30T23:06:06.382Z,13.53
2023-01-30T23:08:41.170Z,15.47
2023-01-30T23:11:19.412Z,13.20
2023-01-30T23:13:56.428Z,14.00
2023-01-30T23:16:28.438Z,17.07
2023-01-30T23:19:03.582Z,14.43
2023-01-30T23:21:39.119Z,13.67
2023-01-30T23:24:19.028Z,15.47
2023-01-30T23:26:51.823Z,11.60
2023-01-30T23:29:23.775Z,11.43
2023-01-30T23:31:55.829Z,11.63
2023-01-30T23:34:27.911Z,14.00
2023-01-30T23:36:59.986Z,12.40
2023-01-30T23:39:31.942Z,13.27
2023-01-30T23:42:04.170Z,11.40
2023-01-30T23:44:36.435Z,13.37
2023-01-30T23:47:08.444Z,9.40
2023-01-30T23:49:40.437Z,15.10
2023-01-30T23:52:13.949Z,12.23
2023-01-30T23:54:45.888Z,12.77
2023-01-30T23:57:17.802Z,13.63
2023-01-30T23:59:49.748Z,15.33
